createdAt,value
2023-01-06T00:01:25.900Z,27.42
2023-01-06T00:03:54.363Z,28.05
2023-01-06T00:06:27.606Z,25.77
2023-01-06T00:09:03.656Z,27.92
2023-01-06T00:11:30.961Z,27.88
2023-01-06T00:13:57.623Z,28.15
2023-01-06T00:16:24.468Z,28.08
2023-01-06T00:18:54.712Z,26.65
2023-01-06T00:23:47.474Z,25.60
2023-01-06T00:26:14.213Z,25.98
2023-01-06T00:28:40.758Z,25.42
2023-01-06T00:31:15.306Z,24.92
2023-01-06T00:33:42.937Z,26.05
2023-01-06T00:36:11.386Z,28.30
2023-01-06T00:38:38.649Z,26.48
2023-01-06T00:41:26.966Z,26.17
2023-01-06T00:43:53.486Z,30.60
2023-01-06T00:46:20.486Z,26.15
2023-01-06T00:49:03.669Z,28.02
2023-01-06T00:51:31.633Z,28.13
2023-01-06T00:53:59.879Z,29.80
2023-01-06T00:56:26.285Z,28.90
2023-01-06T00:58:52.781Z,28.85
2023-01-06T01:01:19.250Z,26.13
2023-01-06T01:03:46.034Z,27.17
2023-01-06T01:06:12.485Z,28.02
2023-01-06T01:08:38.971Z,27.73
2023-01-06T01:11:08.187Z,28.15
2023-01-06T01:13:34.867Z,28.92
2023-01-06T01:16:08.527Z,28.50
2023-01-06T01:18:36.036Z,28.05
2023-01-06T01:21:03.285Z,29.45
2023-01-06T01:23:30.064Z,31.45
2023-01-06T01:25:59.890Z,30.85
2023-01-06T01:28:26.384Z,29.67
2023-01-06T01:31:00.027Z,30.15
2023-01-06T01:33:28.388Z,31.65
2023-01-06T01:35:54.783Z,33.08
2023-01-06T01:38:21.286Z,34.33
2023-01-06T01:40:50.818Z,32.58
2023-01-06T01:43:17.806Z,33.83
2023-01-06T01:45:50.286Z,34.08
2023-01-06T01:48:35.099Z,32.35
2023-01-06T01:51:06.223Z,32.28
2023-01-06T01:53:38.892Z,31.23
2023-01-06T01:56:09.363Z,31.80
2023-01-06T01:58:42.324Z,31.58
2023-01-06T02:01:10.873Z,33.28
2023-01-06T02:03:40.792Z,31.55
2023-01-06T02:06:14.264Z,31.75
2023-01-06T02:08:55.138Z,33.00
2023-01-06T02:11:23.596Z,31.85
2023-01-06T02:13:57.072Z,31.80
2023-01-06T02:16:23.444Z,33.05
2023-01-06T02:19:02.256Z,31.42
2023-01-06T02:21:41.710Z,31.63
2023-01-06T02:24:44.534Z,31.67
2023-01-06T02:27:49.763Z,31.00
2023-01-06T02:30:30.057Z,32.33
2023-01-06T02:36:20.051Z,31.98
2023-01-06T02:39:12.874Z,31.25
2023-01-06T02:41:57.863Z,32.78
2023-01-06T02:44:30.199Z,32.08
2023-01-06T02:47:15.027Z,31.20
2023-01-06T02:49:44.188Z,33.33
2023-01-06T02:52:19.226Z,32.08
2023-01-06T02:54:48.447Z,33.28
2023-01-06T02:57:25.690Z,32.00
2023-01-06T03:00:18.303Z,32.30
2023-01-06T03:02:53.148Z,32.88
2023-01-06T03:05:21.798Z,34.90
2023-01-06T03:07:49.258Z,33.83
2023-01-06T03:10:20.077Z,33.28
2023-01-06T03:13:09.306Z,32.38
2023-01-06T03:15:36.328Z,32.42
2023-01-06T03:18:03.315Z,35.20
2023-01-06T03:20:29.981Z,34.00
2023-01-06T03:22:56.527Z,35.45
2023-01-06T03:25:23.281Z,36.85
2023-01-06T03:27:50.053Z,34.22
2023-01-06T03:30:17.410Z,35.72
2023-01-06T03:32:53.747Z,37.00
2023-01-06T03:35:51.147Z,37.55
2023-01-06T03:38:47.200Z,37.90
2023-01-06T03:41:54.875Z,38.22
2023-01-06T03:44:42.789Z,44.33
2023-01-06T03:47:21.892Z,42.35
2023-01-06T03:49:59.120Z,43.97
2023-01-06T03:52:31.441Z,43.75
2023-01-06T03:55:10.055Z,44.70
2023-01-06T03:57:39.889Z,44.00
2023-01-06T04:00:12.639Z,49.63
2023-01-06T04:02:40.867Z,47.22
2023-01-06T04:05:12.803Z,50.30
2023-01-06T04:07:40.749Z,49.92
2023-01-06T04:10:08.317Z,52.80
2023-01-06T04:12:40.687Z,48.25
2023-01-06T04:15:20.404Z,52.53
2023-01-06T04:17:47.769Z,49.58
2023-01-06T04:20:26.012Z,49.15
2023-01-06T04:22:57.284Z,49.28
2023-01-06T04:25:24.477Z,48.33
2023-01-06T04:27:51.227Z,50.13
2023-01-06T04:30:18.088Z,52.05
2023-01-06T04:32:47.199Z,51.72
2023-01-06T04:35:13.663Z,51.13
2023-01-06T04:37:40.075Z,53.28
2023-01-06T04:40:07.802Z,51.30
2023-01-06T04:42:54.493Z,51.25
2023-01-06T04:45:21.526Z,50.25
2023-01-06T04:47:47.985Z,50.72
2023-01-06T04:50:14.998Z,53.55
2023-01-06T04:52:41.546Z,52.47
2023-01-06T04:55:08.858Z,54.15
2023-01-06T04:57:35.486Z,51.35
2023-01-06T05:00:02.063Z,49.72
2023-01-06T05:02:28.803Z,51.85
2023-01-06T05:04:55.198Z,50.53
2023-01-06T05:07:21.617Z,49.00
2023-01-06T05:09:48.098Z,51.05
2023-01-06T05:12:14.499Z,49.97
2023-01-06T05:14:40.935Z,49.05
2023-01-06T05:17:07.410Z,50.00
2023-01-06T05:19:33.803Z,51.35
2023-01-06T05:22:00.277Z,49.97
2023-01-06T05:24:26.655Z,48.05
2023-01-06T05:26:54.848Z,49.72
2023-01-06T05:29:21.297Z,49.10
2023-01-06T05:31:47.707Z,49.63
2023-01-06T05:34:14.323Z,48.50
2023-01-06T05:36:40.729Z,45.47
2023-01-06T05:39:07.146Z,47.75
2023-01-06T05:41:33.531Z,50.22
2023-01-06T05:44:00.011Z,46.47
2023-01-06T05:46:26.399Z,46.47
2023-01-06T05:48:52.890Z,45.88
2023-01-06T05:51:19.396Z,47.50
2023-01-06T05:53:48.831Z,46.00
2023-01-06T05:56:17.970Z,45.88
2023-01-06T05:58:46.477Z,46.80
2023-01-06T06:01:22.221Z,46.50
2023-01-06T06:03:49.594Z,49.83
2023-01-06T06:06:17.449Z,46.05
2023-01-06T06:08:43.918Z,48.53
2023-01-06T06:11:12.644Z,50.47
2023-01-06T06:13:45.016Z,50.30
2023-01-06T06:16:13.634Z,52.17
2023-01-06T06:18:44.327Z,48.50
2023-01-06T06:21:12.944Z,49.65
2023-01-06T06:23:39.709Z,48.55
2023-01-06T06:26:07.381Z,48.97
2023-01-06T06:28:35.035Z,49.28
2023-01-06T06:31:10.980Z,50.10
2023-01-06T06:33:37.491Z,51.80
2023-01-06T06:36:05.630Z,48.85
2023-01-06T06:38:32.097Z,51.47
2023-01-06T06:40:58.538Z,53.13
2023-01-06T06:43:24.938Z,49.53
2023-01-06T06:45:51.353Z,50.72
2023-01-06T06:48:17.784Z,49.40
2023-01-06T06:50:44.223Z,49.85
2023-01-06T06:53:10.618Z,50.15
2023-01-06T06:55:37.064Z,49.95
2023-01-06T06:58:03.551Z,52.75
2023-01-06T07:00:30.161Z,50.63
2023-01-06T07:02:56.590Z,49.83
2023-01-06T07:05:25.508Z,51.08
2023-01-06T07:07:52.104Z,48.38
2023-01-06T07:10:19.173Z,50.42
2023-01-06T07:12:45.979Z,50.05
2023-01-06T07:15:12.423Z,47.75
2023-01-06T07:17:39.639Z,46.63
2023-01-06T07:20:06.339Z,49.00
2023-01-06T07:22:32.783Z,45.97
2023-01-06T07:24:59.240Z,44.25
2023-01-06T07:27:25.626Z,45.40
2023-01-06T07:29:52.040Z,44.88
2023-01-06T07:32:18.496Z,43.20
2023-01-06T07:34:44.997Z,44.60
2023-01-06T07:37:11.535Z,45.17
2023-01-06T07:39:37.993Z,43.70
2023-01-06T07:42:04.445Z,43.25
2023-01-06T07:44:31.064Z,43.33
2023-01-06T07:46:57.587Z,38.40
2023-01-06T07:49:24.071Z,43.08
2023-01-06T07:51:50.480Z,41.47
2023-01-06T07:54:17.247Z,42.88
2023-01-06T07:56:44.210Z,40.88
2023-01-06T07:59:11.042Z,40.80
2023-01-06T08:01:37.762Z,40.92
2023-01-06T08:04:04.435Z,42.58
2023-01-06T08:06:31.169Z,40.97
2023-01-06T08:08:57.591Z,40.42
2023-01-06T08:11:24.183Z,39.25
2023-01-06T08:13:50.606Z,40.33
2023-01-06T08:16:17.309Z,40.42
2023-01-06T08:18:43.779Z,37.33
2023-01-06T08:21:11.464Z,38.10
2023-01-06T08:23:38.345Z,36.50
2023-01-06T08:26:10.331Z,37.72
2023-01-06T08:28:37.048Z,36.45
2023-01-06T08:31:03.674Z,34.67
2023-01-06T08:33:30.241Z,36.00
2023-01-06T08:36:00.990Z,34.40
2023-01-06T08:38:28.941Z,33.70
2023-01-06T08:40:56.856Z,32.08
2023-01-06T08:43:24.089Z,30.75
2023-01-06T08:45:50.960Z,29.52
2023-01-06T08:48:17.609Z,31.23
2023-01-06T08:50:44.367Z,29.48
2023-01-06T08:53:11.711Z,28.35
2023-01-06T08:55:39.682Z,27.63
2023-01-06T08:58:06.477Z,27.85
2023-01-06T09:00:33.110Z,27.38
2023-01-06T09:02:59.513Z,27.17
2023-01-06T09:05:26.127Z,28.02
2023-01-06T09:07:52.620Z,27.90
2023-01-06T09:10:19.623Z,27.60
2023-01-06T09:12:46.318Z,28.90
2023-01-06T09:15:13.096Z,28.30
2023-01-06T09:17:39.675Z,28.33
2023-01-06T09:20:06.433Z,28.17
2023-01-06T09:22:32.916Z,26.83
2023-01-06T09:24:59.584Z,26.75
2023-01-06T09:27:26.106Z,27.33
2023-01-06T09:29:53.022Z,27.83
2023-01-06T09:32:19.458Z,27.30
2023-01-06T09:34:46.097Z,29.17
2023-01-06T09:37:12.474Z,28.38
2023-01-06T09:39:39.803Z,29.38
2023-01-06T09:42:33.022Z,29.30
2023-01-06T09:45:16.288Z,29.45
2023-01-06T09:48:00.174Z,29.52
2023-01-06T09:50:55.906Z,31.55
2023-01-06T09:53:30.557Z,29.98
2023-01-06T09:56:00.992Z,29.45
2023-01-06T09:58:31.264Z,29.45
2023-01-06T10:03:27.832Z,28.73
2023-01-06T10:06:18.091Z,28.80
2023-01-06T10:09:04.330Z,28.70
2023-01-06T10:12:18.499Z,28.55
2023-01-06T10:15:12.500Z,28.70
2023-01-06T10:17:53.577Z,28.00
2023-01-06T10:21:01.176Z,27.65
2023-01-06T10:23:51.674Z,26.98
2023-01-06T10:26:32.894Z,26.33
2023-01-06T10:29:06.634Z,26.27
2023-01-06T10:31:37.226Z,25.80
2023-01-06T10:34:05.783Z,25.45
2023-01-06T10:36:42.258Z,26.90
2023-01-06T10:39:19.229Z,28.42
2023-01-06T10:42:30.485Z,29.20
2023-01-06T10:44:56.944Z,30.17
2023-01-06T10:47:28.413Z,34.92
2023-01-06T10:49:55.054Z,29.80
2023-01-06T10:52:24.262Z,30.15
2023-01-06T10:54:54.165Z,30.67
2023-01-06T10:57:26.727Z,31.25
2023-01-06T11:00:12.393Z,30.45
2023-01-06T11:02:46.840Z,25.30
2023-01-06T11:05:17.865Z,24.25
2023-01-06T11:07:51.629Z,25.08
2023-01-06T11:10:27.405Z,25.20
2023-01-06T11:12:56.422Z,26.02
2023-01-06T11:15:28.310Z,27.15
2023-01-06T11:17:54.843Z,26.92
2023-01-06T11:20:21.232Z,25.45
2023-01-06T11:22:48.433Z,24.90
2023-01-06T11:25:20.614Z,24.27
2023-01-06T11:27:48.418Z,22.38
2023-01-06T11:30:28.741Z,21.05
2023-01-06T11:35:33.537Z,20.70
2023-01-06T11:38:01.028Z,19.75
2023-01-06T11:40:33.597Z,18.52
2023-01-06T11:43:06.261Z,16.88
2023-01-06T11:45:33.169Z,16.10
2023-01-06T11:48:00.051Z,14.60
2023-01-06T11:50:26.639Z,14.25
2023-01-06T11:53:04.750Z,14.10
2023-01-06T11:55:34.247Z,13.80
2023-01-06T11:58:12.005Z,13.43
2023-01-06T12:00:52.931Z,12.82
2023-01-06T12:03:19.628Z,13.43
2023-01-06T12:06:04.636Z,14.30
2023-01-06T12:08:46.807Z,12.25
2023-01-06T12:11:19.561Z,12.18
2023-01-06T12:14:08.392Z,11.65
2023-01-06T12:16:39.094Z,12.70
2023-01-06T12:19:16.414Z,11.30
2023-01-06T12:21:43.040Z,12.18
2023-01-06T12:24:20.808Z,11.98
2023-01-06T12:26:48.133Z,11.27
2023-01-06T12:29:20.572Z,11.35
2023-01-06T12:32:09.975Z,11.55
2023-01-06T12:34:50.233Z,10.97
2023-01-06T12:40:05.014Z,11.23
2023-01-06T12:43:11.521Z,11.30
2023-01-06T12:45:46.679Z,11.70
2023-01-06T12:48:43.747Z,11.20
2023-01-06T12:51:19.329Z,11.02
2023-01-06T12:53:55.553Z,10.70
2023-01-06T12:56:47.233Z,12.05
2023-01-06T12:59:19.678Z,11.75
2023-01-06T13:01:54.733Z,10.65
2023-01-06T13:04:52.613Z,10.57
2023-01-06T13:07:40.118Z,10.32
2023-01-06T13:10:31.387Z,10.63
2023-01-06T13:13:16.657Z,9.70
2023-01-06T13:15:45.420Z,10.02
2023-01-06T13:18:21.198Z,10.18
2023-01-06T13:20:51.948Z,10.35
2023-01-06T13:23:34.775Z,10.55
2023-01-06T13:26:22.148Z,10.27
2023-01-06T13:29:24.028Z,9.57
2023-01-06T13:32:20.516Z,10.95
2023-01-06T13:35:20.714Z,9.90
2023-01-06T13:38:28.418Z,10.60
2023-01-06T13:40:59.678Z,9.82
2023-01-06T13:43:32.278Z,8.68
2023-01-06T13:46:09.968Z,9.57
2023-01-06T13:48:39.965Z,10.10
2023-01-06T13:51:10.033Z,10.13
2023-01-06T13:53:42.836Z,9.70
2023-01-06T13:56:12.251Z,10.18
2023-01-06T13:58:40.770Z,9.73
2023-01-06T14:01:19.598Z,9.70
2023-01-06T14:03:50.200Z,9.95
2023-01-06T14:06:22.985Z,9.77
2023-01-06T14:08:58.719Z,9.70
2023-01-06T14:11:32.463Z,10.10
2023-01-06T14:14:12.769Z,10.18
2023-01-06T14:19:08.709Z,10.07
2023-01-06T14:21:35.759Z,9.47
2023-01-06T14:24:08.507Z,9.80
2023-01-06T14:26:58.457Z,10.77
2023-01-06T14:29:40.220Z,9.80
2023-01-06T14:32:16.805Z,9.95
2023-01-06T14:34:52.433Z,10.82
2023-01-06T14:37:23.066Z,10.88
2023-01-06T14:39:54.087Z,10.30
2023-01-06T14:42:38.744Z,9.70
2023-01-06T14:45:13.119Z,10.93
2023-01-06T14:47:46.291Z,10.15
2023-01-06T14:50:46.146Z,9.57
2023-01-06T14:53:38.968Z,9.60
2023-01-06T14:56:07.114Z,11.38
2023-01-06T14:58:38.715Z,9.60
2023-01-06T15:01:21.814Z,9.48
2023-01-06T15:03:57.780Z,9.88
2023-01-06T15:06:25.710Z,10.00
2023-01-06T15:08:52.231Z,10.50
2023-01-06T15:11:27.671Z,9.43
2023-01-06T15:13:54.842Z,10.20
2023-01-06T15:16:39.344Z,10.40
2023-01-06T15:19:07.628Z,9.80
2023-01-06T15:21:40.417Z,10.98
2023-01-06T15:24:24.996Z,11.00
2023-01-06T15:26:53.761Z,11.57
2023-01-06T15:29:24.195Z,10.38
2023-01-06T15:31:53.060Z,12.82
2023-01-06T15:34:22.802Z,11.63
2023-01-06T15:36:53.452Z,12.60
2023-01-06T15:39:27.108Z,14.73
2023-01-06T15:41:54.527Z,13.50
2023-01-06T15:44:27.328Z,10.70
2023-01-06T15:47:11.677Z,10.98
2023-01-06T15:49:42.837Z,11.00
2023-01-06T15:52:21.551Z,10.00
2023-01-06T15:54:48.502Z,10.68
2023-01-06T15:57:17.373Z,12.77
2023-01-06T15:59:56.652Z,11.27
2023-01-06T16:02:26.023Z,12.30
2023-01-06T16:04:52.735Z,11.73
2023-01-06T16:07:41.019Z,12.05
2023-01-06T16:10:36.762Z,23.67
2023-01-06T16:13:18.567Z,15.98
2023-01-06T16:15:45.340Z,13.48
2023-01-06T16:18:13.169Z,15.52
2023-01-06T16:20:39.909Z,14.23
2023-01-06T16:23:06.624Z,12.00
2023-01-06T16:25:35.345Z,13.90
2023-01-06T16:28:04.394Z,13.98
2023-01-06T16:30:36.528Z,13.07
2023-01-06T16:33:03.740Z,11.98
2023-01-06T16:35:32.453Z,13.70
2023-01-06T16:37:59.227Z,13.15
2023-01-06T16:40:27.610Z,11.93
2023-01-06T16:43:02.161Z,10.60
2023-01-06T16:45:31.587Z,11.18
2023-01-06T16:47:58.595Z,11.53
2023-01-06T16:50:36.490Z,14.07
2023-01-06T16:53:21.109Z,21.60
2023-01-06T16:55:55.394Z,19.38
2023-01-06T16:58:30.016Z,15.70
2023-01-06T17:01:04.901Z,13.82
2023-01-06T17:03:36.661Z,11.07
2023-01-06T17:06:03.445Z,11.70
2023-01-06T17:08:38.457Z,11.65
2023-01-06T17:11:16.378Z,11.52
2023-01-06T17:13:51.458Z,14.43
2023-01-06T17:16:21.323Z,13.98
2023-01-06T17:18:56.671Z,16.00
2023-01-06T17:21:26.769Z,14.60
2023-01-06T17:23:57.624Z,12.30
2023-01-06T17:26:24.982Z,11.40
2023-01-06T17:28:54.126Z,12.65
2023-01-06T17:31:34.115Z,11.40
2023-01-06T17:34:22.310Z,11.23
2023-01-06T17:36:53.247Z,11.38
2023-01-06T17:39:30.131Z,12.35
2023-01-06T17:42:12.672Z,11.20
2023-01-06T17:44:48.307Z,11.50
2023-01-06T17:47:15.228Z,10.93
2023-01-06T17:49:47.591Z,12.18
2023-01-06T17:52:35.493Z,11.38
2023-01-06T17:55:41.935Z,18.77
2023-01-06T17:58:17.984Z,24.70
2023-01-06T18:00:45.562Z,27.90
2023-01-06T18:03:18.975Z,18.27
2023-01-06T18:05:45.590Z,16.00
2023-01-06T18:08:17.318Z,19.02
2023-01-06T18:11:02.757Z,15.77
2023-01-06T18:13:35.650Z,17.08
2023-01-06T18:16:05.754Z,24.25
2023-01-06T18:18:40.297Z,25.60
2023-01-06T18:21:16.182Z,22.95
2023-01-06T18:23:45.610Z,22.92
2023-01-06T18:26:27.115Z,15.40
2023-01-06T18:29:00.176Z,14.07
2023-01-06T18:31:33.890Z,13.73
2023-01-06T18:34:08.142Z,13.10
2023-01-06T18:36:34.544Z,14.07
2023-01-06T18:39:01.487Z,12.32
2023-01-06T18:41:28.660Z,12.32
2023-01-06T18:43:58.114Z,12.73
2023-01-06T18:46:26.189Z,11.65
2023-01-06T18:48:54.676Z,10.80
2023-01-06T18:51:24.425Z,11.80
2023-01-06T18:53:52.191Z,11.02
2023-01-06T18:56:26.916Z,12.50
2023-01-06T18:58:57.191Z,13.73
2023-01-06T19:01:23.713Z,18.95
2023-01-06T19:04:19.076Z,16.70
2023-01-06T19:06:49.821Z,12.65
2023-01-06T19:09:43.774Z,13.43
2023-01-06T19:12:36.994Z,14.13
2023-01-06T19:15:29.605Z,12.68
2023-01-06T19:17:56.047Z,12.90
2023-01-06T19:20:26.760Z,12.38
2023-01-06T19:22:55.217Z,11.93
2023-01-06T19:25:40.479Z,12.50
2023-01-06T19:28:16.894Z,12.98
2023-01-06T19:30:48.105Z,11.15
2023-01-06T19:34:06.068Z,12.73
2023-01-06T19:36:49.207Z,12.10
2023-01-06T19:39:24.017Z,11.40
2023-01-06T19:41:55.915Z,12.00
2023-01-06T19:44:32.154Z,11.20
2023-01-06T19:47:00.515Z,12.23
2023-01-06T19:49:37.600Z,11.35
2023-01-06T19:52:24.289Z,11.98
2023-01-06T19:54:50.726Z,12.75
2023-01-06T19:57:32.702Z,12.43
2023-01-06T20:00:01.633Z,12.25
2023-01-06T20:02:31.655Z,12.70
2023-01-06T20:04:58.320Z,13.77
2023-01-06T20:07:24.760Z,12.20
2023-01-06T20:09:51.245Z,12.60
2023-01-06T20:12:17.755Z,12.73
2023-01-06T20:14:44.200Z,13.35
2023-01-06T20:17:10.883Z,12.18
2023-01-06T20:19:37.250Z,12.57
2023-01-06T20:22:03.681Z,12.05
2023-01-06T20:24:30.231Z,12.15
2023-01-06T20:26:56.671Z,11.98
2023-01-06T20:29:23.107Z,12.18
2023-01-06T20:31:49.559Z,13.65
2023-01-06T20:34:16.139Z,13.50
2023-01-06T20:36:42.877Z,13.23
2023-01-06T20:39:09.439Z,13.25
2023-01-06T20:41:35.834Z,12.73
2023-01-06T20:44:02.221Z,13.60
2023-01-06T20:46:28.664Z,13.85
2023-01-06T20:48:55.066Z,13.95
2023-01-06T20:51:21.438Z,12.10
2023-01-06T20:53:47.827Z,12.60
2023-01-06T20:56:14.239Z,12.63
2023-01-06T20:58:40.655Z,12.57
2023-01-06T21:01:07.269Z,12.35
2023-01-06T21:03:33.793Z,12.52
2023-01-06T21:06:00.182Z,13.48
2023-01-06T21:08:26.611Z,12.88
2023-01-06T21:10:53.060Z,13.57
2023-01-06T21:13:23.969Z,12.30
2023-01-06T21:15:50.692Z,12.50
2023-01-06T21:18:17.117Z,12.57
2023-01-06T21:20:43.633Z,12.70
2023-01-06T21:23:10.026Z,12.07
2023-01-06T21:25:36.455Z,12.40
2023-01-06T21:28:02.987Z,12.52
2023-01-06T21:30:31.646Z,11.60
2023-01-06T21:32:58.095Z,13.80
2023-01-06T21:35:24.505Z,13.50
2023-01-06T21:37:51.173Z,13.60
2023-01-06T21:40:17.637Z,13.35
2023-01-06T21:43:02.725Z,13.15
2023-01-06T21:45:29.222Z,12.57
2023-01-06T21:47:56.245Z,15.68
2023-01-06T21:50:25.423Z,13.77
2023-01-06T21:52:53.577Z,13.98
2023-01-06T21:55:20.318Z,13.98
2023-01-06T21:57:47.362Z,14.52
2023-01-06T22:00:14.269Z,13.60
2023-01-06T22:02:41.310Z,13.35
2023-01-06T22:05:08.450Z,13.30
2023-01-06T22:07:38.345Z,13.52
2023-01-06T22:10:06.915Z,12.60
2023-01-06T22:12:34.156Z,13.20
2023-01-06T22:15:01.155Z,13.13
2023-01-06T22:17:27.720Z,13.30
2023-01-06T22:19:55.181Z,13.23
2023-01-06T22:22:22.589Z,12.30
2023-01-06T22:24:51.891Z,13.77
2023-01-06T22:27:18.296Z,14.33
2023-01-06T22:29:44.771Z,12.98
2023-01-06T22:32:11.371Z,13.00
2023-01-06T22:34:37.768Z,13.55
2023-01-06T22:37:04.188Z,12.65
2023-01-06T22:39:30.646Z,13.93
2023-01-06T22:41:57.102Z,13.80
2023-01-06T22:44:23.569Z,13.75
2023-01-06T22:46:49.969Z,13.98
2023-01-06T22:49:16.377Z,13.15
2023-01-06T22:51:43.709Z,14.25
2023-01-06T22:54:10.271Z,14.73
2023-01-06T22:56:36.817Z,16.70
2023-01-06T22:59:03.597Z,15.65
2023-01-06T23:01:30.214Z,16.45
2023-01-06T23:03:56.650Z,14.80
2023-01-06T23:06:23.177Z,14.20
2023-01-06T23:08:59.672Z,13.60
2023-01-06T23:11:27.933Z,13.30
2023-01-06T23:13:58.395Z,13.55
2023-01-06T23:18:53.397Z,13.60
2023-01-06T23:21:23.276Z,13.57
2023-01-06T23:23:51.018Z,13.70
2023-01-06T23:26:22.817Z,14.85
2023-01-06T23:28:51.250Z,13.77
2023-01-06T23:31:20.732Z,13.68
2023-01-06T23:33:49.846Z,12.80
2023-01-06T23:36:18.576Z,13.70
2023-01-06T23:38:45.249Z,14.30
2023-01-06T23:41:32.418Z,15.38
2023-01-06T23:44:00.050Z,15.77
2023-01-06T23:46:29.667Z,14.07
2023-01-06T23:48:56.833Z,13.98
2023-01-06T23:51:24.164Z,13.73
2023-01-06T23:53:51.854Z,13.93
2023-01-06T23:56:20.805Z,13.88
2023-01-06T23:58:49.060Z,14.13
